Time;durP1;ratioP1;P1;durP2;ratioP2;P2;SDS_P1;SDS_P2;PMS_P1;PMS_P2;Temp;Humidity;BMP_temperature;BMP_pressure;BME280_temperature;BME280_humidity;BME280_pressure;Samples;Min_cycle;Max_cycle;Signal;HPM_P1;HPM_P2
2021/06/15 00:02:14;;;;;;;8.52;1.25;;;;;;;;;;5012994;28;20635;-64
2021/06/15 00:04:59;;;;;;;6.28;1.42;;;;;;;;;;5012904;28;20111;-64
2021/06/15 00:07:47;;;;;;;7.95;1.35;;;;;;;;;;5012964;28;20172;-64
2021/06/15 00:10:33;;;;;;;7.55;1.20;;;;;;;;;;5010058;28;20046;-64
2021/06/15 00:13:18;;;;;;;5.78;1.45;;;;;;;;;;5012200;28;20092;-64
2021/06/15 00:16:04;;;;;;;9.90;1.63;;;;;;;;;;4993225;28;20061;-64
2021/06/15 00:18:50;;;;;;;6.10;1.30;;;;;;;;;;4997740;28;20042;-64
2021/06/15 00:21:35;;;;;;;9.88;2.03;;;;;;;;;;5009902;28;20053;-64
2021/06/15 00:24:21;;;;;;;8.85;1.52;;;;;;;;;;5011653;28;20436;-64
2021/06/15 00:27:06;;;;;;;8.52;1.40;;;;;;;;;;5012518;28;20050;-64
2021/06/15 00:29:51;;;;;;;6.63;1.73;;;;;;;;;;5011766;28;20050;-64
2021/06/15 00:32:45;;;;;;;12.00;2.17;;;;;;;;;;4993006;28;20051;-64
2021/06/15 00:35:51;;;;;;;6.63;1.23;;;;;;;;;;4992025;28;20285;-64
2021/06/15 00:38:36;;;;;;;8.38;1.70;;;;;;;;;;4993034;28;20050;-64
2021/06/15 00:41:41;;;;;;;7.50;1.48;;;;;;;;;;5003818;28;20050;-64
2021/06/15 00:44:27;;;;;;;6.88;1.90;;;;;;;;;;5012524;28;20092;-64
2021/06/15 00:47:12;;;;;;;6.50;1.77;;;;;;;;;;5012328;28;20050;-64
2021/06/15 00:49:59;;;;;;;5.85;1.42;;;;;;;;;;5012320;28;20128;-64
2021/06/15 00:52:44;;;;;;;9.05;1.67;;;;;;;;;;4991459;28;20185;-64
2021/06/15 00:55:30;;;;;;;6.45;1.80;;;;;;;;;;4992723;28;20053;-64
2021/06/15 00:58:15;;;;;;;7.57;1.25;;;;;;;;;;5031434;23;20066;-62
2021/06/15 01:01:01;;;;;;;6.70;1.60;;;;;;;;;;4990659;28;20108;-63
2021/06/15 01:03:48;;;;;;;7.05;1.33;;;;;;;;;;4988977;28;20061;-63
2021/06/15 01:06:42;;;;;;;7.80;1.60;;;;;;;;;;4991697;28;20074;-63
2021/06/15 01:09:40;;;;;;;11.45;1.52;;;;;;;;;;5005123;28;20518;-63
2021/06/15 01:12:46;;;;;;;7.05;1.30;;;;;;;;;;4990723;28;20053;-63
2021/06/15 01:15:39;;;;;;;7.68;1.30;;;;;;;;;;4991257;28;20076;-62
2021/06/15 01:18:25;;;;;;;11.85;2.03;;;;;;;;;;4973247;28;20081;-63
2021/06/15 01:21:11;;;;;;;9.23;1.20;;;;;;;;;;4973502;28;20055;-62
2021/06/15 01:24:05;;;;;;;8.98;1.42;;;;;;;;;;4976225;28;20404;-63
2021/06/15 01:27:00;;;;;;;9.48;1.42;;;;;;;;;;4980877;28;20488;-63
2021/06/15 01:29:45;;;;;;;7.55;1.20;;;;;;;;;;4995192;28;20452;-63
2021/06/15 01:32:31;;;;;;;7.10;1.58;;;;;;;;;;4995383;28;20042;-62
2021/06/15 01:35:18;;;;;;;10.98;2.00;;;;;;;;;;4995546;28;20169;-62
2021/06/15 01:38:06;;;;;;;5.47;0.98;;;;;;;;;;4994700;28;20435;-63
2021/06/15 01:40:52;;;;;;;5.57;1.20;;;;;;;;;;4994920;28;20048;-63
2021/06/15 01:43:42;;;;;;;6.18;1.60;;;;;;;;;;4995615;28;20057;-63
2021/06/15 01:46:28;;;;;;;8.77;1.40;;;;;;;;;;4994902;28;20069;-63
2021/06/15 01:49:40;;;;;;;10.00;1.85;;;;;;;;;;4974412;28;20043;-62
2021/06/15 01:52:28;;;;;;;9.48;2.50;;;;;;;;;;4975664;28;20193;-63
2021/06/15 01:55:17;;;;;;;6.45;1.50;;;;;;;;;;4989002;28;20055;-62
2021/06/15 01:58:13;;;;;;;8.98;2.13;;;;;;;;;;5002636;28;20046;-62
2021/06/15 02:00:59;;;;;;;7.05;2.30;;;;;;;;;;5014290;28;20056;-62
2021/06/15 02:03:47;;;;;;;9.45;2.00;;;;;;;;;;5015336;28;20112;-63
2021/06/15 02:06:35;;;;;;;10.25;2.95;;;;;;;;;;5014212;28;20408;-63
2021/06/15 02:09:21;;;;;;;11.43;3.20;;;;;;;;;;5013373;28;20077;-63
2021/06/15 02:12:16;;;;;;;10.20;2.70;;;;;;;;;;5014263;28;20042;-62
2021/06/15 02:15:35;;;;;;;13.27;3.28;;;;;;;;;;5014880;28;20531;-63
2021/06/15 02:18:49;;;;;;;10.70;3.00;;;;;;;;;;5003345;28;20053;-62
2021/06/15 02:21:45;;;;;;;11.88;3.28;;;;;;;;;;5013922;28;20132;-63
2021/06/15 02:24:57;;;;;;;17.92;3.13;;;;;;;;;;5013787;28;20492;-63
2021/06/15 02:28:02;;;;;;;15.65;3.38;;;;;;;;;;5003115;28;20415;-63
2021/06/15 02:30:48;;;;;;;12.13;3.63;;;;;;;;;;5027666;28;20464;-63
2021/06/15 02:33:42;;;;;;;9.88;2.83;;;;;;;;;;5013090;28;20053;-62
2021/06/15 02:36:34;;;;;;;12.18;3.22;;;;;;;;;;5014864;28;20057;-62
2021/06/15 02:39:21;;;;;;;11.38;3.88;;;;;;;;;;5012559;28;20132;-62
2021/06/15 02:42:08;;;;;;;13.15;3.28;;;;;;;;;;5012436;28;20488;-62
2021/06/15 02:44:56;;;;;;;9.82;2.35;;;;;;;;;;5026999;28;20139;-62
2021/06/15 02:47:47;;;;;;;9.73;2.80;;;;;;;;;;5014423;28;20045;-62
2021/06/15 02:50:34;;;;;;;8.73;2.95;;;;;;;;;;5012277;28;20053;-63
2021/06/15 02:53:34;;;;;;;13.60;3.10;;;;;;;;;;5013202;28;20065;-63
2021/06/15 02:56:20;;;;;;;11.45;2.95;;;;;;;;;;4994892;28;20050;-63
2021/06/15 02:59:07;;;;;;;11.50;2.70;;;;;;;;;;4993491;28;20175;-62
2021/06/15 03:01:53;;;;;;;10.40;2.67;;;;;;;;;;5014258;28;20050;-63
2021/06/15 03:04:46;;;;;;;9.35;3.03;;;;;;;;;;5006465;28;20046;-63
2021/06/15 03:07:33;;;;;;;14.35;3.03;;;;;;;;;;4994437;28;20043;-62
2021/06/15 03:10:21;;;;;;;8.70;2.70;;;;;;;;;;5012655;28;20046;-62
2021/06/15 03:13:09;;;;;;;11.48;2.53;;;;;;;;;;5014032;28;20052;-63
2021/06/15 03:15:58;;;;;;;9.95;2.33;;;;;;;;;;5012973;28;20060;-62
2021/06/15 03:18:52;;;;;;;12.55;3.22;;;;;;;;;;5013788;28;20528;-62
2021/06/15 03:21:40;;;;;;;11.50;3.00;;;;;;;;;;5012049;28;20181;-62
2021/06/15 03:24:34;;;;;;;11.10;3.30;;;;;;;;;;5012791;28;20499;-62
2021/06/15 03:27:20;;;;;;;14.80;2.80;;;;;;;;;;5012859;28;20045;-63
2021/06/15 03:30:26;;;;;;;10.25;2.50;;;;;;;;;;5000397;28;20492;-62
2021/06/15 03:33:27;;;;;;;8.05;2.92;;;;;;;;;;5013761;28;20126;-62
2021/06/15 03:36:14;;;;;;;11.20;2.67;;;;;;;;;;5012513;28;20550;-62
2021/06/15 03:38:59;;;;;;;19.38;3.55;;;;;;;;;;5012467;28;20046;-62
2021/06/15 03:41:45;;;;;;;11.70;3.08;;;;;;;;;;5011425;28;20104;-62
2021/06/15 03:44:31;;;;;;;11.75;2.65;;;;;;;;;;5012232;28;20060;-62
2021/06/15 03:47:16;;;;;;;7.57;2.53;;;;;;;;;;5013287;28;20137;-62
2021/06/15 03:50:02;;;;;;;12.23;2.72;;;;;;;;;;5012259;28;20411;-62
2021/06/15 03:52:47;;;;;;;10.07;2.63;;;;;;;;;;5011551;28;20056;-62
2021/06/15 03:55:33;;;;;;;9.88;2.33;;;;;;;;;;5026007;28;20054;-62
2021/06/15 03:58:18;;;;;;;19.35;2.83;;;;;;;;;;5025885;28;20080;-62
2021/06/15 04:01:04;;;;;;;8.50;2.95;;;;;;;;;;5025801;28;20073;-62
2021/06/15 04:03:49;;;;;;;14.88;2.97;;;;;;;;;;5012846;28;20049;-62
2021/06/15 04:06:49;;;;;;;12.18;2.85;;;;;;;;;;5012302;28;20046;-62
2021/06/15 04:09:35;;;;;;;9.93;3.17;;;;;;;;;;5011897;28;20496;-63
2021/06/15 04:12:21;;;;;;;11.52;3.20;;;;;;;;;;5011702;28;20057;-62
2021/06/15 04:15:08;;;;;;;10.00;2.83;;;;;;;;;;5012163;28;20057;-62
2021/06/15 04:17:55;;;;;;;13.23;3.33;;;;;;;;;;5011791;28;20507;-62
2021/06/15 04:20:40;;;;;;;8.90;2.08;;;;;;;;;;5011525;28;20045;-62
2021/06/15 04:23:36;;;;;;;10.98;2.83;;;;;;;;;;5001603;28;20493;-62
2021/06/15 04:26:22;;;;;;;10.90;3.00;;;;;;;;;;5005604;28;20417;-62
2021/06/15 04:29:10;;;;;;;11.18;2.65;;;;;;;;;;5005477;28;20042;-62
2021/06/15 04:32:07;;;;;;;10.23;2.78;;;;;;;;;;4993161;28;20046;-62
2021/06/15 04:34:54;;;;;;;9.50;2.58;;;;;;;;;;5024981;28;20050;-62
2021/06/15 04:37:47;;;;;;;11.10;3.47;;;;;;;;;;5002441;28;20501;-62
2021/06/15 04:40:33;;;;;;;10.30;3.00;;;;;;;;;;4992709;28;20136;-63
2021/06/15 04:43:38;;;;;;;11.75;3.05;;;;;;;;;;4997174;28;20092;-62
2021/06/15 04:46:24;;;;;;;13.70;3.28;;;;;;;;;;5011599;28;20050;-63
2021/06/15 04:49:12;;;;;;;13.98;2.72;;;;;;;;;;5012404;28;20046;-63
2021/06/15 04:51:59;;;;;;;16.27;3.67;;;;;;;;;;5011406;28;20050;-62
2021/06/15 04:54:46;;;;;;;14.57;3.40;;;;;;;;;;5011564;28;20050;-62
2021/06/15 04:57:34;;;;;;;12.18;3.20;;;;;;;;;;5010556;28;20049;-62
2021/06/15 05:00:22;;;;;;;11.43;2.45;;;;;;;;;;5011987;28;20173;-63
2021/06/15 05:03:19;;;;;;;9.88;2.70;;;;;;;;;;5012376;28;20042;-63
2021/06/15 05:06:05;;;;;;;12.10;2.75;;;;;;;;;;5011205;28;20046;-63
2021/06/15 05:08:53;;;;;;;10.95;3.30;;;;;;;;;;5011989;28;20045;-62
2021/06/15 05:11:38;;;;;;;13.00;2.58;;;;;;;;;;5012003;28;20046;-62
2021/06/15 05:14:31;;;;;;;11.68;2.95;;;;;;;;;;5010907;28;20077;-61
2021/06/15 05:17:17;;;;;;;14.93;3.17;;;;;;;;;;5011067;28;20046;-62
2021/06/15 05:20:04;;;;;;;11.52;3.67;;;;;;;;;;5012353;28;20550;-61
2021/06/15 05:22:58;;;;;;;16.15;3.10;;;;;;;;;;5012527;28;20100;-62
2021/06/15 05:25:43;;;;;;;10.15;2.60;;;;;;;;;;5012125;28;20084;-62
2021/06/15 05:28:29;;;;;;;11.40;2.28;;;;;;;;;;5013480;28;20050;-62
2021/06/15 05:31:14;;;;;;;11.85;2.65;;;;;;;;;;5013327;28;20112;-62
2021/06/15 05:34:00;;;;;;;10.20;2.40;;;;;;;;;;5012688;28;20049;-62
2021/06/15 05:36:46;;;;;;;12.60;2.97;;;;;;;;;;4995937;28;20050;-63
2021/06/15 05:39:31;;;;;;;9.88;2.15;;;;;;;;;;4994012;28;20058;-61
2021/06/15 05:42:16;;;;;;;15.88;2.50;;;;;;;;;;4994139;28;20105;-62
2021/06/15 05:45:02;;;;;;;7.85;1.95;;;;;;;;;;5009901;28;20133;-62
2021/06/15 05:47:47;;;;;;;9.82;1.92;;;;;;;;;;4994487;28;20046;-62
2021/06/15 05:50:33;;;;;;;14.82;2.47;;;;;;;;;;4993724;28;20505;-61
2021/06/15 05:53:18;;;;;;;11.95;2.92;;;;;;;;;;4994552;28;20046;-63
2021/06/15 05:56:07;;;;;;;12.10;2.28;;;;;;;;;;4994688;28;20090;-62
2021/06/15 05:58:52;;;;;;;16.60;2.35;;;;;;;;;;4993155;28;20074;-62
2021/06/15 06:01:40;;;;;;;11.35;3.22;;;;;;;;;;5006257;28;20050;-62
2021/06/15 06:04:28;;;;;;;14.02;2.55;;;;;;;;;;5012914;28;20420;-62
2021/06/15 06:10:18;;;;;;;11.70;2.17;;;;;;;;;;5015647;28;20041;-61
2021/06/15 06:13:06;;;;;;;7.10;1.98;;;;;;;;;;5014560;28;20092;-62
2021/06/15 06:15:52;;;;;;;6.28;1.60;;;;;;;;;;5015689;28;20519;-62
2021/06/15 06:18:37;;;;;;;6.32;1.42;;;;;;;;;;5015046;28;20099;-62
2021/06/15 06:21:22;;;;;;;7.50;1.67;;;;;;;;;;5013841;28;20038;-62
2021/06/15 06:24:08;;;;;;;9.32;1.88;;;;;;;;;;5015142;28;20046;-62
2021/06/15 06:26:53;;;;;;;12.48;1.75;;;;;;;;;;5014719;28;20505;-62
2021/06/15 06:29:39;;;;;;;11.40;1.77;;;;;;;;;;5014485;28;20651;-62
2021/06/15 06:32:24;;;;;;;8.15;1.63;;;;;;;;;;5014026;28;20049;-62
2021/06/15 06:35:10;;;;;;;8.52;1.90;;;;;;;;;;5014785;28;20050;-62
2021/06/15 06:37:55;;;;;;;7.22;1.70;;;;;;;;;;5014525;28;20498;-62
2021/06/15 06:40:40;;;;;;;9.02;2.00;;;;;;;;;;5014570;28;20404;-62
2021/06/15 06:43:26;;;;;;;8.60;2.15;;;;;;;;;;5013732;28;20050;-62
2021/06/15 06:46:12;;;;;;;7.50;2.10;;;;;;;;;;5011397;28;20045;-62
2021/06/15 06:48:57;;;;;;;13.55;2.22;;;;;;;;;;5014338;28;20524;-62
2021/06/15 06:51:43;;;;;;;8.77;1.52;;;;;;;;;;5014234;28;20073;-62
2021/06/15 06:54:28;;;;;;;4.68;1.27;;;;;;;;;;5014073;28;20056;-62
2021/06/15 06:57:13;;;;;;;7.90;2.03;;;;;;;;;;5014387;28;20049;-62
2021/06/15 06:59:59;;;;;;;8.57;1.67;;;;;;;;;;5037216;23;20564;-64
2021/06/15 07:02:44;;;;;;;10.88;2.10;;;;;;;;;;4994535;28;20079;-64
2021/06/15 07:05:29;;;;;;;10.85;2.60;;;;;;;;;;4994834;28;20046;-64
2021/06/15 07:08:15;;;;;;;7.88;1.60;;;;;;;;;;4994544;28;20062;-64
2021/06/15 07:11:00;;;;;;;11.57;1.63;;;;;;;;;;4993326;28;20038;-64
2021/06/15 07:13:45;;;;;;;7.65;1.40;;;;;;;;;;4993061;28;20051;-63
2021/06/15 07:16:31;;;;;;;8.20;1.52;;;;;;;;;;4993718;28;20053;-63
2021/06/15 07:19:16;;;;;;;8.05;1.40;;;;;;;;;;4993750;28;20564;-63
2021/06/15 07:22:02;;;;;;;11.15;2.05;;;;;;;;;;4993111;28;20408;-63
2021/06/15 07:24:47;;;;;;;7.05;1.67;;;;;;;;;;4994158;28;20046;-63
2021/06/15 07:27:52;;;;;;;8.65;2.28;;;;;;;;;;4993035;28;20096;-63
2021/06/15 07:30:49;;;;;;;7.72;1.48;;;;;;;;;;4992840;28;20061;-63
2021/06/15 07:33:54;;;;;;;7.38;1.45;;;;;;;;;;4992947;28;20055;-63
2021/06/15 07:36:59;;;;;;;7.82;1.95;;;;;;;;;;4991999;28;20051;-63
2021/06/15 07:40:05;;;;;;;8.68;2.10;;;;;;;;;;4992544;28;20512;-63
2021/06/15 07:42:51;;;;;;;6.90;1.98;;;;;;;;;;4992659;28;20042;-63
2021/06/15 07:45:56;;;;;;;9.52;1.98;;;;;;;;;;4992715;28;20077;-63
2021/06/15 07:49:02;;;;;;;9.27;1.25;;;;;;;;;;4992680;28;20504;-63
2021/06/15 07:51:47;;;;;;;8.18;2.08;;;;;;;;;;4992947;28;20065;-63
2021/06/15 07:54:49;;;;;;;7.97;1.42;;;;;;;;;;4993681;28;20147;-63
2021/06/15 07:57:54;;;;;;;10.00;1.40;;;;;;;;;;4992619;28;20081;-63
2021/06/15 08:00:59;;;;;;;6.65;1.63;;;;;;;;;;4991091;28;20524;-63
2021/06/15 08:03:44;;;;;;;10.45;2.75;;;;;;;;;;4993494;28;20503;-63
2021/06/15 08:06:50;;;;;;;8.48;1.50;;;;;;;;;;4991660;28;20038;-63
2021/06/15 08:09:35;;;;;;;7.47;1.60;;;;;;;;;;4993043;28;20049;-63
2021/06/15 08:12:21;;;;;;;8.85;1.83;;;;;;;;;;4993221;28;20463;-62
2021/06/15 08:15:06;;;;;;;9.57;1.58;;;;;;;;;;4993296;28;20042;-63
2021/06/15 08:18:12;;;;;;;8.52;2.13;;;;;;;;;;4991600;28;20051;-64
2021/06/15 08:20:57;;;;;;;6.78;1.83;;;;;;;;;;4993087;28;20052;-63
2021/06/15 08:23:43;;;;;;;6.75;1.60;;;;;;;;;;4993236;28;20054;-63
2021/06/15 08:26:46;;;;;;;5.93;1.27;;;;;;;;;;4992868;28;20056;-63
2021/06/15 08:29:31;;;;;;;9.57;1.85;;;;;;;;;;4992496;28;20416;-62
2021/06/15 08:32:37;;;;;;;9.45;1.55;;;;;;;;;;4991559;28;20046;-63
2021/06/15 08:35:22;;;;;;;9.27;1.40;;;;;;;;;;4993172;28;20420;-64
2021/06/15 08:38:27;;;;;;;8.20;1.80;;;;;;;;;;4991306;28;20101;-64
2021/06/15 08:41:12;;;;;;;6.47;2.25;;;;;;;;;;4992604;28;20054;-64
2021/06/15 08:43:58;;;;;;;10.77;2.38;;;;;;;;;;4992887;28;20054;-65
2021/06/15 08:46:43;;;;;;;10.02;2.58;;;;;;;;;;4992851;28;20046;-64
2021/06/15 08:49:29;;;;;;;5.07;1.40;;;;;;;;;;4990602;28;20046;-64
2021/06/15 08:52:14;;;;;;;5.30;1.35;;;;;;;;;;4991886;28;20046;-64
2021/06/15 08:54:59;;;;;;;8.43;1.63;;;;;;;;;;4992863;28;20046;-64
2021/06/15 08:57:46;;;;;;;4.22;1.20;;;;;;;;;;4991878;28;20054;-64
2021/06/15 09:00:31;;;;;;;7.85;1.98;;;;;;;;;;4991707;28;20054;-64
2021/06/15 09:03:17;;;;;;;6.53;1.67;;;;;;;;;;4992753;28;20050;-64
2021/06/15 09:06:02;;;;;;;7.45;2.15;;;;;;;;;;4992496;28;20432;-64
2021/06/15 09:08:51;;;;;;;6.57;1.55;;;;;;;;;;4991751;28;21731;-64
2021/06/15 09:11:49;;;;;;;4.15;1.40;;;;;;;;;;4992489;28;20124;-63
2021/06/15 09:14:40;;;;;;;5.40;1.40;;;;;;;;;;4992443;28;20047;-64
2021/06/15 09:17:29;;;;;;;6.00;1.23;;;;;;;;;;4992667;28;20200;-64
2021/06/15 09:20:25;;;;;;;8.73;1.95;;;;;;;;;;4991375;28;20068;-63
2021/06/15 09:23:15;;;;;;;6.93;1.40;;;;;;;;;;4992460;28;20048;-64
2021/06/15 09:26:00;;;;;;;7.25;1.50;;;;;;;;;;4992660;28;20057;-63
2021/06/15 09:28:51;;;;;;;4.78;1.30;;;;;;;;;;4992389;28;20073;-63
2021/06/15 09:31:36;;;;;;;8.45;1.58;;;;;;;;;;4992238;28;20049;-64
2021/06/15 09:34:21;;;;;;;6.28;1.52;;;;;;;;;;4991547;28;20512;-63
2021/06/15 09:37:07;;;;;;;5.22;1.70;;;;;;;;;;4992301;28;20516;-63
2021/06/15 09:39:52;;;;;;;5.18;1.80;;;;;;;;;;4991206;28;20073;-63
2021/06/15 09:42:53;;;;;;;5.82;1.45;;;;;;;;;;4993225;28;20050;-63
2021/06/15 09:45:45;;;;;;;9.75;1.85;;;;;;;;;;4995118;28;20048;-63
2021/06/15 09:48:38;;;;;;;5.88;1.45;;;;;;;;;;4996114;28;20053;-64
2021/06/15 09:51:23;;;;;;;7.95;1.73;;;;;;;;;;4994834;28;20058;-64
2021/06/15 09:54:09;;;;;;;4.65;1.30;;;;;;;;;;4995027;28;20050;-64
2021/06/15 09:56:57;;;;;;;7.00;1.73;;;;;;;;;;4996055;28;20054;-63
2021/06/15 09:59:59;;;;;;;7.05;1.30;;;;;;;;;;4995378;28;20050;-63
2021/06/15 10:02:51;;;;;;;7.55;1.67;;;;;;;;;;4995567;28;20058;-64
2021/06/15 10:05:39;;;;;;;4.18;1.13;;;;;;;;;;4995710;28;20042;-64
2021/06/15 10:08:24;;;;;;;7.55;1.48;;;;;;;;;;4995551;28;20066;-63
2021/06/15 10:11:10;;;;;;;7.85;1.40;;;;;;;;;;4993132;28;20132;-64
2021/06/15 10:13:57;;;;;;;7.68;1.50;;;;;;;;;;4995694;28;20102;-63
2021/06/15 10:16:42;;;;;;;4.60;1.20;;;;;;;;;;4995462;28;20616;-65
2021/06/15 10:19:27;;;;;;;5.07;1.20;;;;;;;;;;4992125;28;20072;-64
2021/06/15 10:22:13;;;;;;;6.65;1.25;;;;;;;;;;4994288;28;20579;-64
2021/06/15 10:24:58;;;;;;;8.93;1.77;;;;;;;;;;4995404;28;20100;-64
2021/06/15 10:27:43;;;;;;;3.83;1.17;;;;;;;;;;4995177;28;20061;-64
2021/06/15 10:30:35;;;;;;;7.05;1.75;;;;;;;;;;4994496;28;20057;-63
2021/06/15 10:33:23;;;;;;;6.63;2.03;;;;;;;;;;4995245;28;20042;-63
2021/06/15 10:36:09;;;;;;;5.30;1.70;;;;;;;;;;4995100;28;20129;-63
2021/06/15 10:38:54;;;;;;;7.22;1.48;;;;;;;;;;4994928;28;20103;-63
2021/06/15 10:41:39;;;;;;;7.38;2.00;;;;;;;;;;4993505;28;20057;-63
2021/06/15 10:44:25;;;;;;;8.57;1.90;;;;;;;;;;4995227;28;20049;-63
2021/06/15 10:47:11;;;;;;;6.47;1.38;;;;;;;;;;4995026;28;20053;-64
2021/06/15 10:49:57;;;;;;;5.65;1.27;;;;;;;;;;4994497;28;20042;-63
2021/06/15 10:53:01;;;;;;;9.32;1.73;;;;;;;;;;4975414;28;20050;-63
2021/06/15 10:55:58;;;;;;;6.60;1.60;;;;;;;;;;4974581;28;20047;-63
2021/06/15 10:58:48;;;;;;;5.32;1.35;;;;;;;;;;4975090;28;20053;-63
2021/06/15 11:01:43;;;;;;;7.22;1.50;;;;;;;;;;4983443;28;20056;-63
2021/06/15 11:04:37;;;;;;;7.05;1.50;;;;;;;;;;4994640;28;20500;-63
2021/06/15 11:07:35;;;;;;;6.10;1.45;;;;;;;;;;4994735;28;20056;-63
2021/06/15 11:10:40;;;;;;;5.78;0.82;;;;;;;;;;4994270;28;20608;-63
2021/06/15 11:13:41;;;;;;;5.03;1.02;;;;;;;;;;4994270;28;20054;-63
2021/06/15 11:16:32;;;;;;;7.45;2.05;;;;;;;;;;4994588;28;20081;-63
2021/06/15 11:19:18;;;;;;;4.00;1.42;;;;;;;;;;4994162;28;20409;-63
2021/06/15 11:22:07;;;;;;;6.88;1.38;;;;;;;;;;5004581;28;20724;-63
2021/06/15 11:25:00;;;;;;;5.32;1.50;;;;;;;;;;4993306;28;20081;-63
2021/06/15 11:27:45;;;;;;;6.85;1.80;;;;;;;;;;4993041;28;20436;-63
2021/06/15 11:30:30;;;;;;;6.57;1.05;;;;;;;;;;4994258;28;20050;-63
2021/06/15 11:33:15;;;;;;;5.05;1.30;;;;;;;;;;4992325;28;20042;-63
2021/06/15 11:36:00;;;;;;;7.35;1.55;;;;;;;;;;4994015;28;20073;-63
2021/06/15 11:39:06;;;;;;;5.53;1.75;;;;;;;;;;4993135;28;20053;-63
2021/06/15 11:42:10;;;;;;;5.20;1.10;;;;;;;;;;4993953;28;20126;-63
2021/06/15 11:45:01;;;;;;;5.25;1.60;;;;;;;;;;4992544;28;20424;-63
2021/06/15 11:47:47;;;;;;;6.97;1.15;;;;;;;;;;4993749;28;20104;-63
2021/06/15 11:50:33;;;;;;;6.07;1.33;;;;;;;;;;4993561;28;20050;-63
2021/06/15 11:53:20;;;;;;;5.20;1.33;;;;;;;;;;4993346;28;20038;-63
2021/06/15 11:56:06;;;;;;;6.88;1.20;;;;;;;;;;4993702;28;20128;-63
2021/06/15 11:58:55;;;;;;;6.93;1.30;;;;;;;;;;4993508;28;20042;-63
2021/06/15 12:01:40;;;;;;;7.03;1.38;;;;;;;;;;4993450;28;20042;-63
2021/06/15 12:04:26;;;;;;;5.88;1.17;;;;;;;;;;4991997;28;20053;-63
2021/06/15 12:07:17;;;;;;;6.70;1.42;;;;;;;;;;4993353;28;20049;-63
2021/06/15 12:10:12;;;;;;;6.80;1.33;;;;;;;;;;4993142;28;20045;-63
2021/06/15 12:13:02;;;;;;;5.65;1.33;;;;;;;;;;4993334;28;20420;-63
2021/06/15 12:16:08;;;;;;;6.05;1.17;;;;;;;;;;4992172;28;20620;-63
2021/06/15 12:18:55;;;;;;;5.45;1.48;;;;;;;;;;4993118;28;20620;-63
2021/06/15 12:21:42;;;;;;;5.05;1.40;;;;;;;;;;4993126;28;20069;-63
2021/06/15 12:24:27;;;;;;;6.63;1.27;;;;;;;;;;4992604;28;20537;-63
2021/06/15 12:27:22;;;;;;;4.13;1.05;;;;;;;;;;4993154;28;20047;-64
2021/06/15 12:30:07;;;;;;;5.70;0.93;;;;;;;;;;4991668;28;20053;-63
2021/06/15 12:32:52;;;;;;;6.10;1.05;;;;;;;;;;4993210;28;20109;-63
2021/06/15 12:35:38;;;;;;;6.35;1.15;;;;;;;;;;4992337;28;20053;-63
2021/06/15 12:38:23;;;;;;;4.45;0.95;;;;;;;;;;4992923;28;20054;-64
2021/06/15 12:41:10;;;;;;;3.50;1.70;;;;;;;;;;4992662;28;20046;-63
2021/06/15 12:43:55;;;;;;;6.65;1.30;;;;;;;;;;4993014;28;20053;-64
2021/06/15 12:46:41;;;;;;;7.78;1.50;;;;;;;;;;4991160;28;20050;-63
2021/06/15 12:49:26;;;;;;;7.80;1.60;;;;;;;;;;4992497;28;20053;-65
2021/06/15 12:52:11;;;;;;;5.90;1.67;;;;;;;;;;4992903;28;20053;-63
2021/06/15 12:55:08;;;;;;;4.85;1.48;;;;;;;;;;4991741;28;20046;-63
2021/06/15 12:57:57;;;;;;;3.67;1.15;;;;;;;;;;4992507;28;20500;-63
2021/06/15 13:00:43;;;;;;;3.70;0.90;;;;;;;;;;4992947;28;20089;-64
2021/06/15 13:03:34;;;;;;;2.58;0.68;;;;;;;;;;4992619;28;20419;-64
2021/06/15 13:06:20;;;;;;;5.03;1.48;;;;;;;;;;4983475;28;20117;-64
2021/06/15 13:09:11;;;;;;;5.85;1.35;;;;;;;;;;4973380;28;20397;-64
2021/06/15 13:12:01;;;;;;;5.85;1.15;;;;;;;;;;4973193;28;20086;-65
2021/06/15 13:14:53;;;;;;;5.15;1.00;;;;;;;;;;4973275;28;20452;-65
2021/06/15 13:17:39;;;;;;;5.20;1.25;;;;;;;;;;4989047;28;20061;-64
2021/06/15 13:20:24;;;;;;;6.35;1.38;;;;;;;;;;4995881;28;20052;-65
2021/06/15 13:23:19;;;;;;;5.28;0.82;;;;;;;;;;4996456;28;20570;-65
2021/06/15 13:26:18;;;;;;;5.85;1.17;;;;;;;;;;4995860;28;20512;-65
2021/06/15 13:29:03;;;;;;;2.90;0.95;;;;;;;;;;4976817;28;20035;-64
2021/06/15 13:31:48;;;;;;;5.70;1.00;;;;;;;;;;4976768;28;20051;-63
2021/06/15 13:34:34;;;;;;;6.50;1.38;;;;;;;;;;4977040;28;20053;-64
2021/06/15 13:37:19;;;;;;;4.55;0.88;;;;;;;;;;4984292;28;20052;-65
2021/06/15 13:40:05;;;;;;;6.20;0.88;;;;;;;;;;4995967;28;20428;-64
2021/06/15 13:42:54;;;;;;;4.30;0.95;;;;;;;;;;4996261;28;20161;-64
2021/06/15 13:45:40;;;;;;;6.30;1.63;;;;;;;;;;4995251;28;20121;-64
2021/06/15 13:48:25;;;;;;;6.65;1.50;;;;;;;;;;4995208;28;20069;-65
2021/06/15 13:51:13;;;;;;;4.25;1.00;;;;;;;;;;4995711;28;20048;-65
2021/06/15 13:54:01;;;;;;;5.50;1.10;;;;;;;;;;4995754;28;20527;-65
2021/06/15 13:56:48;;;;;;;6.10;1.20;;;;;;;;;;4995988;28;20074;-65
2021/06/15 13:59:34;;;;;;;4.93;1.25;;;;;;;;;;5008036;28;20073;-64
2021/06/15 14:02:19;;;;;;;7.50;1.67;;;;;;;;;;4993915;28;20416;-64
2021/06/15 14:05:04;;;;;;;3.95;1.30;;;;;;;;;;4995678;28;20457;-64
2021/06/15 14:07:49;;;;;;;3.70;0.82;;;;;;;;;;4994584;28;20069;-64
2021/06/15 14:10:36;;;;;;;4.60;1.23;;;;;;;;;;4995354;28;20046;-65
2021/06/15 14:13:22;;;;;;;4.43;0.90;;;;;;;;;;4995722;28;20053;-64
2021/06/15 14:16:07;;;;;;;6.65;1.52;;;;;;;;;;4995586;28;20084;-64
2021/06/15 14:18:53;;;;;;;7.63;1.48;;;;;;;;;;4994752;28;20499;-65
2021/06/15 14:21:38;;;;;;;4.90;1.15;;;;;;;;;;4995116;28;20048;-65
2021/06/15 14:24:23;;;;;;;3.90;1.15;;;;;;;;;;4995521;28;20145;-65
2021/06/15 14:27:09;;;;;;;3.28;0.90;;;;;;;;;;4995431;28;20054;-64
2021/06/15 14:29:54;;;;;;;7.63;1.33;;;;;;;;;;4991871;28;20064;-65
2021/06/15 14:32:39;;;;;;;4.13;0.80;;;;;;;;;;4995346;28;20049;-65
2021/06/15 14:35:25;;;;;;;4.25;1.08;;;;;;;;;;4995131;28;20057;-64
2021/06/15 14:38:11;;;;;;;4.70;1.10;;;;;;;;;;4995294;28;20050;-64
2021/06/15 14:40:56;;;;;;;5.28;1.45;;;;;;;;;;4994856;28;20173;-66
2021/06/15 14:43:41;;;;;;;2.95;0.93;;;;;;;;;;4994910;28;20038;-65
2021/06/15 14:46:27;;;;;;;5.35;0.98;;;;;;;;;;4995237;28;20057;-65
2021/06/15 14:49:12;;;;;;;4.45;0.95;;;;;;;;;;4994198;28;20173;-64
2021/06/15 14:51:58;;;;;;;4.68;1.02;;;;;;;;;;4994788;28;20558;-64
2021/06/15 14:54:43;;;;;;;3.28;0.80;;;;;;;;;;4995036;28;20061;-64
2021/06/15 14:57:29;;;;;;;3.30;1.30;;;;;;;;;;4994883;28;20047;-64
2021/06/15 15:00:14;;;;;;;9.52;1.45;;;;;;;;;;4993796;28;20041;-64
2021/06/15 15:03:00;;;;;;;5.90;1.27;;;;;;;;;;4994669;28;20452;-64
2021/06/15 15:05:46;;;;;;;2.97;1.05;;;;;;;;;;4994781;28;20057;-64
2021/06/15 15:08:31;;;;;;;4.43;1.00;;;;;;;;;;4994434;28;20439;-65
2021/06/15 15:11:16;;;;;;;4.15;1.00;;;;;;;;;;4993539;28;20050;-64
2021/06/15 15:14:02;;;;;;;4.65;1.10;;;;;;;;;;4994454;28;20053;-64
2021/06/15 15:16:47;;;;;;;3.53;0.82;;;;;;;;;;4994696;28;20185;-64
2021/06/15 15:19:32;;;;;;;5.25;1.20;;;;;;;;;;4994219;28;20049;-63
2021/06/15 15:22:18;;;;;;;5.07;1.42;;;;;;;;;;4994435;28;20144;-65
2021/06/15 15:25:04;;;;;;;5.40;1.05;;;;;;;;;;4994310;28;20045;-64
2021/06/15 15:27:49;;;;;;;5.70;1.23;;;;;;;;;;4994173;28;20448;-64
2021/06/15 15:30:36;;;;;;;5.80;1.40;;;;;;;;;;4992969;28;20121;-64
2021/06/15 15:33:22;;;;;;;5.25;1.30;;;;;;;;;;4994213;28;20054;-64
2021/06/15 15:36:07;;;;;;;3.47;0.80;;;;;;;;;;4994032;28;20046;-64
2021/06/15 15:38:53;;;;;;;4.28;1.00;;;;;;;;;;4994026;28;20104;-64
2021/06/15 15:41:39;;;;;;;3.00;1.20;;;;;;;;;;4992362;28;20543;-63
2021/06/15 15:44:24;;;;;;;4.88;1.17;;;;;;;;;;4993039;28;20038;-64
2021/06/15 15:47:09;;;;;;;5.30;1.10;;;;;;;;;;4993723;28;20042;-64
2021/06/15 15:49:55;;;;;;;3.30;0.88;;;;;;;;;;4993456;28;20049;-64
2021/06/15 15:52:40;;;;;;;3.38;0.90;;;;;;;;;;4993003;28;20060;-64
2021/06/15 15:55:26;;;;;;;3.08;0.90;;;;;;;;;;4992832;28;20520;-64
2021/06/15 15:58:12;;;;;;;3.00;1.00;;;;;;;;;;5006210;28;20472;-64
2021/06/15 16:00:57;;;;;;;6.28;1.35;;;;;;;;;;4993203;28;20049;-64
2021/06/15 16:03:43;;;;;;;4.35;0.80;;;;;;;;;;4992712;28;20045;-64
2021/06/15 16:06:29;;;;;;;5.10;1.08;;;;;;;;;;4993434;28;20046;-64
2021/06/15 16:09:16;;;;;;;4.45;0.95;;;;;;;;;;4993229;28;20072;-64
2021/06/15 16:12:02;;;;;;;3.95;0.90;;;;;;;;;;4992266;28;21841;-64
2021/06/15 16:14:47;;;;;;;2.83;1.02;;;;;;;;;;4993447;28;20057;-63
2021/06/15 16:17:32;;;;;;;3.80;1.20;;;;;;;;;;4993410;28;20057;-63
2021/06/15 16:20:18;;;;;;;3.85;1.35;;;;;;;;;;4992077;28;20117;-64
2021/06/15 16:23:04;;;;;;;5.03;1.08;;;;;;;;;;4993270;28;20054;-64
2021/06/15 16:25:49;;;;;;;3.67;1.00;;;;;;;;;;4993056;28;20050;-64
2021/06/15 16:28:35;;;;;;;6.00;1.10;;;;;;;;;;4992970;28;20049;-64
2021/06/15 16:31:20;;;;;;;6.00;1.20;;;;;;;;;;4992131;28;20058;-63
2021/06/15 16:34:05;;;;;;;3.65;0.90;;;;;;;;;;4992144;28;20519;-64
2021/06/15 16:36:51;;;;;;;3.47;0.98;;;;;;;;;;4992964;28;20050;-64
2021/06/15 16:39:36;;;;;;;4.57;1.35;;;;;;;;;;4992620;28;20530;-63
2021/06/15 16:42:21;;;;;;;4.45;0.77;;;;;;;;;;4991620;28;20092;-63
2021/06/15 16:45:07;;;;;;;4.35;1.30;;;;;;;;;;4991954;28;20543;-64
2021/06/15 16:47:53;;;;;;;5.18;1.08;;;;;;;;;;4991238;28;20649;-64
2021/06/15 16:50:38;;;;;;;5.35;1.25;;;;;;;;;;4991481;28;20412;-63
2021/06/15 16:53:23;;;;;;;4.72;1.08;;;;;;;;;;4992226;28;20057;-64